Aviation-Friends-Hamburg. Das neue Portal der Airbus-Freunde für Hamburg und Norddeutschland

Normale Version: Runwaykonfiguration
Du siehst gerade eine vereinfachte Darstellung unserer Inhalte. Normale Ansicht mit richtiger Formatierung.
Aktuelle Runwaykonfiguration werden hier gepostet.
EDDH/HAM am 20.07.2018 - 0845

Landing : 05

Takeoff : 33

Gruß

Helmut

Data at: 0644 UTC 20 Jul 2018
METAR for:
EDDH (Hamburg Arpt, --, DL)
Text:
EDDH 200620Z 02004KT 330V070 CAVOK 17/10 Q1016 NOSIG
Temperature:
17.0°C ( 63°F)
Dewpoint:
10.0°C ( 50°F) [RH = 63%]
Pressure (altimeter):
30.00 inches Hg (1016.0 mb)
Winds:
from the NNE (20 degrees) at 5 MPH (4 knots; 2.1 m/s)
Visibility:
6 or more sm (10+ km)
Ceiling:
ceiling and visibility are OK
Clouds:
unknown

Zeit: 08:44 (06:44 UTC)
Prognose
Neuester Wetterbericht von vor 1 Stunde und 44 Minuten, um 05:00 UTC
Gültige Prognose vom 20 um 06 UTC bis 21 um 12 UTC
Wind 5 kt aus Nord/Nordost
Sichtweite 10 km oder mehr
keine Wolken unter 1500 m und keine Kumulonimbus oder Gewitterwolken
Übergehend zu
vom 21 um 06 UTC bis 21 um 08 UTC

Wind 10 kt aus Ost
TAF: EDDH 200500Z 2006/2112 02005KT CAVOK BECMG 2106/2108 09010KT